SVMI METAR and TAF | Updated Today

SVMI METAR

Simón Bolívar International Airport

Observation time: 29 min. ago

SVMI 070903Z AUTO 10002KT NCD ///// Q1014

Need help? Read our tutorial on how to read METARs or read the parsed version below.

Simón Bolívar International Airport (SVMI) METAR

  • Weather conditions on Tue, 07 Dec 2021 09:03:00 +0000 (29 min. ago):
  • Present conditions:
  • Clouds: Nil cloud detected
  • Visibility:
  • Wind: 100 degrees at 2 knots
  • Temperature: celsius
  • Dew point: celsius
  • Pressure: 1014 millibars
  • Remarks: None


Useful to know...

SVMI TAF

Simón Bolívar International Airport

TAF SVMI 070400Z 0706/0806 09005KT 9999 SCT016 TX33/0706Z TN22/0706Z TEMPO 0704/0710 09006KT 9000 SCT016 SCT090
Observation time: 5:32 hr. ago
Need help? Read our tutorial on how to read TAFs or read the parsed version below.

Parsed version of TAF for Simón Bolívar International Airport (SVMI)

  • From 07 December at 06:00 UTC, to day 08 of the month at 06:00 UTC
  • Clouds: Scattered at 488 meters
  • Visibility: Greater than 10 km
  • Wind: 90 degrees at 5
  • Expected to arise temporarily, from 07 December at 04:00 UTC, to day 07 of the month at 10:00 UTC
  • Clouds: Scattered at 488 meters; scattered at 2743 meters
  • Visibility: 9000 meters
  • Wind: 90 degrees at 6

Airports near SVMI